Terminal Aerodrome Forecast
Issued by NWS

Home | Current Version | Previous Version | Text Only | Print | Product List | Glossary On
Versions: 1 2 3 4 5 6 7 8 9 10 11 12 13 14 15 16 17 18 19
000
FTUS43 KILX 042053 AAA
TAFCMI
TAF AMD
KCMI 042053Z 0421/0518 22012KT P6SM VCTS SCT050CB BKN120
     FM042200 36010KT P6SM VCTS SCT050CB BKN120
     FM050200 VRB05KT 6SM -RA BR VCTS BKN050CB
     FM050900 16005KT P6SM BKN050
     FM051400 18008KT P6SM SCT050=

USA.gov is the U.S. government's official web portal to all federal, state and local government web resources and services.